sensor_id;sensor_type;location;lat;lon;timestamp;P1;durP1;ratioP1;P2;durP2;ratioP2
22995;SDS011;11664;49.774;8.650;2022-08-19T00:00:05;17.85;;;16.40;;
22995;SDS011;11664;49.774;8.650;2022-08-19T00:02:33;22.52;;;20.63;;
22995;SDS011;11664;49.774;8.650;2022-08-19T00:04:59;38.28;;;35.95;;
22995;SDS011;11664;49.774;8.650;2022-08-19T00:07:25;11.63;;;10.63;;
22995;SDS011;11664;49.774;8.650;2022-08-19T00:09:51;11.10;;;10.15;;
22995;SDS011;11664;49.774;8.650;2022-08-19T00:12:17;10.27;;;9.27;;
22995;SDS011;11664;49.774;8.650;2022-08-19T00:14:43;16.13;;;14.68;;
22995;SDS011;11664;49.774;8.650;2022-08-19T00:17:09;11.48;;;10.55;;
22995;SDS011;11664;49.774;8.650;2022-08-19T00:19:35;11.27;;;10.18;;
22995;SDS011;11664;49.774;8.650;2022-08-19T00:22:01;14.55;;;13.25;;
22995;SDS011;11664;49.774;8.650;2022-08-19T00:24:28;12.98;;;11.65;;
22995;SDS011;11664;49.774;8.650;2022-08-19T00:26:54;16.58;;;15.00;;
22995;SDS011;11664;49.774;8.650;2022-08-19T00:29:21;10.73;;;9.40;;
22995;SDS011;11664;49.774;8.650;2022-08-19T00:31:48;15.70;;;14.50;;
22995;SDS011;11664;49.774;8.650;2022-08-19T00:34:15;12.27;;;11.15;;
22995;SDS011;11664;49.774;8.650;2022-08-19T00:36:41;15.20;;;13.60;;
22995;SDS011;11664;49.774;8.650;2022-08-19T00:39:08;18.17;;;16.70;;
22995;SDS011;11664;49.774;8.650;2022-08-19T00:41:34;14.57;;;13.20;;
22995;SDS011;11664;49.774;8.650;2022-08-19T00:44:14;12.07;;;10.88;;
22995;SDS011;11664;49.774;8.650;2022-08-19T00:46:42;27.23;;;25.25;;
22995;SDS011;11664;49.774;8.650;2022-08-19T00:51:39;8.45;;;7.60;;
22995;SDS011;11664;49.774;8.650;2022-08-19T00:54:06;10.43;;;8.18;;
22995;SDS011;11664;49.774;8.650;2022-08-19T00:56:32;10.50;;;9.50;;
22995;SDS011;11664;49.774;8.650;2022-08-19T00:58:58;14.45;;;10.52;;
22995;SDS011;11664;49.774;8.650;2022-08-19T01:01:25;11.82;;;9.88;;
22995;SDS011;11664;49.774;8.650;2022-08-19T01:03:51;11.25;;;9.93;;
22995;SDS011;11664;49.774;8.650;2022-08-19T01:06:17;10.75;;;9.65;;
22995;SDS011;11664;49.774;8.650;2022-08-19T01:08:43;11.15;;;10.07;;
22995;SDS011;11664;49.774;8.650;2022-08-19T01:11:09;12.43;;;11.30;;
22995;SDS011;11664;49.774;8.650;2022-08-19T01:13:35;9.32;;;8.48;;
22995;SDS011;11664;49.774;8.650;2022-08-19T01:16:03;10.95;;;9.95;;
22995;SDS011;11664;49.774;8.650;2022-08-19T01:18:29;9.77;;;8.80;;
22995;SDS011;11664;49.774;8.650;2022-08-19T01:20:58;11.80;;;10.60;;
22995;SDS011;11664;49.774;8.650;2022-08-19T01:23:26;10.15;;;9.10;;
22995;SDS011;11664;49.774;8.650;2022-08-19T01:26:08;27.88;;;25.67;;
22995;SDS011;11664;49.774;8.650;2022-08-19T01:28:35;28.60;;;26.70;;
22995;SDS011;11664;49.774;8.650;2022-08-19T01:31:01;24.90;;;23.27;;
22995;SDS011;11664;49.774;8.650;2022-08-19T01:33:28;24.42;;;22.83;;
22995;SDS011;11664;49.774;8.650;2022-08-19T01:36:03;22.55;;;20.85;;
22995;SDS011;11664;49.774;8.650;2022-08-19T01:38:29;17.20;;;15.85;;
22995;SDS011;11664;49.774;8.650;2022-08-19T01:40:56;18.02;;;16.67;;
22995;SDS011;11664;49.774;8.650;2022-08-19T01:43:23;14.82;;;13.65;;
22995;SDS011;11664;49.774;8.650;2022-08-19T01:45:49;9.30;;;8.32;;
22995;SDS011;11664;49.774;8.650;2022-08-19T01:48:15;9.98;;;8.95;;
22995;SDS011;11664;49.774;8.650;2022-08-19T01:50:41;9.85;;;8.82;;
22995;SDS011;11664;49.774;8.650;2022-08-19T01:53:09;15.63;;;14.38;;
22995;SDS011;11664;49.774;8.650;2022-08-19T01:55:36;9.82;;;8.75;;
22995;SDS011;11664;49.774;8.650;2022-08-19T01:58:02;11.20;;;8.73;;
22995;SDS011;11664;49.774;8.650;2022-08-19T02:00:30;10.35;;;8.80;;
22995;SDS011;11664;49.774;8.650;2022-08-19T02:02:57;9.35;;;7.18;;
22995;SDS011;11664;49.774;8.650;2022-08-19T02:05:23;8.75;;;7.68;;
22995;SDS011;11664;49.774;8.650;2022-08-19T02:07:49;9.13;;;8.13;;
22995;SDS011;11664;49.774;8.650;2022-08-19T02:10:19;8.80;;;7.78;;
22995;SDS011;11664;49.774;8.650;2022-08-19T02:12:46;9.55;;;7.05;;
22995;SDS011;11664;49.774;8.650;2022-08-19T02:15:12;11.98;;;7.82;;
22995;SDS011;11664;49.774;8.650;2022-08-19T02:17:38;9.15;;;8.25;;
22995;SDS011;11664;49.774;8.650;2022-08-19T02:20:05;9.20;;;7.90;;
22995;SDS011;11664;49.774;8.650;2022-08-19T02:22:31;8.63;;;7.68;;
22995;SDS011;11664;49.774;8.650;2022-08-19T02:24:57;7.60;;;6.97;;
22995;SDS011;11664;49.774;8.650;2022-08-19T02:27:24;8.55;;;7.82;;
22995;SDS011;11664;49.774;8.650;2022-08-19T02:29:50;15.57;;;14.38;;
22995;SDS011;11664;49.774;8.650;2022-08-19T02:32:17;12.52;;;11.52;;
22995;SDS011;11664;49.774;8.650;2022-08-19T02:34:44;9.00;;;8.10;;
22995;SDS011;11664;49.774;8.650;2022-08-19T02:37:10;11.60;;;10.52;;
22995;SDS011;11664;49.774;8.650;2022-08-19T02:39:56;9.05;;;8.18;;
22995;SDS011;11664;49.774;8.650;2022-08-19T02:42:23;11.30;;;10.25;;
22995;SDS011;11664;49.774;8.650;2022-08-19T02:44:49;9.10;;;7.70;;
22995;SDS011;11664;49.774;8.650;2022-08-19T02:47:16;6.88;;;6.18;;
22995;SDS011;11664;49.774;8.650;2022-08-19T02:49:43;10.02;;;8.93;;
22995;SDS011;11664;49.774;8.650;2022-08-19T02:52:09;9.07;;;8.18;;
22995;SDS011;11664;49.774;8.650;2022-08-19T02:54:36;8.73;;;7.93;;
22995;SDS011;11664;49.774;8.650;2022-08-19T02:57:03;7.18;;;6.22;;
22995;SDS011;11664;49.774;8.650;2022-08-19T02:59:30;8.30;;;7.50;;
22995;SDS011;11664;49.774;8.650;2022-08-19T03:01:56;9.60;;;7.43;;
22995;SDS011;11664;49.774;8.650;2022-08-19T03:04:22;9.88;;;8.88;;
22995;SDS011;11664;49.774;8.650;2022-08-19T03:06:49;8.60;;;7.82;;
22995;SDS011;11664;49.774;8.650;2022-08-19T03:09:15;8.35;;;7.55;;
22995;SDS011;11664;49.774;8.650;2022-08-19T03:11:42;7.40;;;6.28;;
22995;SDS011;11664;49.774;8.650;2022-08-19T03:14:08;8.68;;;7.80;;
22995;SDS011;11664;49.774;8.650;2022-08-19T03:16:39;8.05;;;6.60;;
22995;SDS011;11664;49.774;8.650;2022-08-19T03:19:06;8.50;;;7.18;;
22995;SDS011;11664;49.774;8.650;2022-08-19T03:21:32;9.07;;;8.38;;
22995;SDS011;11664;49.774;8.650;2022-08-19T03:24:01;7.72;;;6.93;;
22995;SDS011;11664;49.774;8.650;2022-08-19T03:26:28;9.13;;;8.25;;
22995;SDS011;11664;49.774;8.650;2022-08-19T03:28:54;8.35;;;7.60;;
22995;SDS011;11664;49.774;8.650;2022-08-19T03:31:21;8.40;;;7.60;;
22995;SDS011;11664;49.774;8.650;2022-08-19T03:33:48;8.07;;;6.57;;
22995;SDS011;11664;49.774;8.650;2022-08-19T03:36:15;7.97;;;7.07;;
22995;SDS011;11664;49.774;8.650;2022-08-19T03:38:43;7.70;;;6.97;;
22995;SDS011;11664;49.774;8.650;2022-08-19T03:41:11;8.90;;;7.82;;
22995;SDS011;11664;49.774;8.650;2022-08-19T03:43:38;9.40;;;8.43;;
22995;SDS011;11664;49.774;8.650;2022-08-19T03:46:08;10.98;;;9.88;;
22995;SDS011;11664;49.774;8.650;2022-08-19T03:48:34;11.02;;;10.18;;
22995;SDS011;11664;49.774;8.650;2022-08-19T03:51:02;11.90;;;11.00;;
22995;SDS011;11664;49.774;8.650;2022-08-19T03:53:29;10.98;;;10.00;;
22995;SDS011;11664;49.774;8.650;2022-08-19T03:55:56;12.57;;;11.45;;
22995;SDS011;11664;49.774;8.650;2022-08-19T03:58:24;9.60;;;8.90;;
22995;SDS011;11664;49.774;8.650;2022-08-19T04:00:50;10.38;;;9.40;;
22995;SDS011;11664;49.774;8.650;2022-08-19T04:03:16;10.98;;;10.07;;
22995;SDS011;11664;49.774;8.650;2022-08-19T04:05:43;9.98;;;9.07;;
22995;SDS011;11664;49.774;8.650;2022-08-19T04:08:09;7.97;;;7.32;;
22995;SDS011;11664;49.774;8.650;2022-08-19T04:10:36;11.15;;;10.07;;
22995;SDS011;11664;49.774;8.650;2022-08-19T04:13:02;8.40;;;7.55;;
22995;SDS011;11664;49.774;8.650;2022-08-19T04:15:30;9.52;;;8.73;;
22995;SDS011;11664;49.774;8.650;2022-08-19T04:18:00;9.32;;;8.63;;
22995;SDS011;11664;49.774;8.650;2022-08-19T04:20:26;10.68;;;9.65;;
22995;SDS011;11664;49.774;8.650;2022-08-19T04:22:52;11.55;;;10.73;;
22995;SDS011;11664;49.774;8.650;2022-08-19T04:25:18;10.85;;;9.80;;
22995;SDS011;11664;49.774;8.650;2022-08-19T04:27:44;9.07;;;8.18;;
22995;SDS011;11664;49.774;8.650;2022-08-19T04:30:11;11.65;;;10.52;;
22995;SDS011;11664;49.774;8.650;2022-08-19T04:32:38;10.95;;;10.15;;
22995;SDS011;11664;49.774;8.650;2022-08-19T04:35:04;11.52;;;10.52;;
22995;SDS011;11664;49.774;8.650;2022-08-19T04:37:31;14.25;;;12.95;;
22995;SDS011;11664;49.774;8.650;2022-08-19T04:39:58;12.32;;;11.23;;
22995;SDS011;11664;49.774;8.650;2022-08-19T04:42:43;17.10;;;15.98;;
22995;SDS011;11664;49.774;8.650;2022-08-19T04:45:11;13.65;;;12.38;;
22995;SDS011;11664;49.774;8.650;2022-08-19T04:47:38;12.38;;;11.10;;
22995;SDS011;11664;49.774;8.650;2022-08-19T04:50:05;16.27;;;15.07;;
22995;SDS011;11664;49.774;8.650;2022-08-19T04:52:31;35.60;;;33.33;;
22995;SDS011;11664;49.774;8.650;2022-08-19T04:54:57;30.10;;;28.10;;
22995;SDS011;11664;49.774;8.650;2022-08-19T04:57:23;14.55;;;13.23;;
22995;SDS011;11664;49.774;8.650;2022-08-19T04:59:53;10.23;;;9.32;;
22995;SDS011;11664;49.774;8.650;2022-08-19T05:02:19;9.57;;;8.65;;
22995;SDS011;11664;49.774;8.650;2022-08-19T05:04:48;11.15;;;10.07;;
22995;SDS011;11664;49.774;8.650;2022-08-19T05:07:13;10.88;;;9.93;;
22995;SDS011;11664;49.774;8.650;2022-08-19T05:09:39;9.82;;;7.78;;
22995;SDS011;11664;49.774;8.650;2022-08-19T05:12:06;8.90;;;8.15;;
22995;SDS011;11664;49.774;8.650;2022-08-19T05:14:32;20.08;;;18.58;;
22995;SDS011;11664;49.774;8.650;2022-08-19T05:16:58;19.85;;;18.40;;
22995;SDS011;11664;49.774;8.650;2022-08-19T05:19:24;16.00;;;14.45;;
22995;SDS011;11664;49.774;8.650;2022-08-19T05:22:08;9.50;;;8.70;;
22995;SDS011;11664;49.774;8.650;2022-08-19T05:24:53;12.55;;;11.25;;
22995;SDS011;11664;49.774;8.650;2022-08-19T05:27:19;9.57;;;8.88;;
22995;SDS011;11664;49.774;8.650;2022-08-19T05:29:45;10.50;;;9.68;;
22995;SDS011;11664;49.774;8.650;2022-08-19T05:32:11;13.45;;;12.27;;
22995;SDS011;11664;49.774;8.650;2022-08-19T05:34:38;13.40;;;12.25;;
22995;SDS011;11664;49.774;8.650;2022-08-19T05:37:04;8.02;;;6.70;;
22995;SDS011;11664;49.774;8.650;2022-08-19T05:39:33;9.57;;;8.77;;
22995;SDS011;11664;49.774;8.650;2022-08-19T05:42:09;11.15;;;9.98;;
22995;SDS011;11664;49.774;8.650;2022-08-19T05:44:37;15.50;;;14.10;;
22995;SDS011;11664;49.774;8.650;2022-08-19T05:47:04;12.65;;;11.30;;
22995;SDS011;11664;49.774;8.650;2022-08-19T05:49:32;9.77;;;8.13;;
22995;SDS011;11664;49.774;8.650;2022-08-19T05:52:00;9.63;;;8.80;;
22995;SDS011;11664;49.774;8.650;2022-08-19T05:54:26;16.25;;;14.80;;
22995;SDS011;11664;49.774;8.650;2022-08-19T05:56:52;8.98;;;8.27;;
22995;SDS011;11664;49.774;8.650;2022-08-19T05:59:19;10.93;;;9.98;;
22995;SDS011;11664;49.774;8.650;2022-08-19T06:01:46;13.60;;;12.23;;
22995;SDS011;11664;49.774;8.650;2022-08-19T06:04:15;9.90;;;7.10;;
22995;SDS011;11664;49.774;8.650;2022-08-19T06:06:43;8.60;;;7.65;;
22995;SDS011;11664;49.774;8.650;2022-08-19T06:09:09;13.27;;;9.52;;
22995;SDS011;11664;49.774;8.650;2022-08-19T06:11:40;14.32;;;12.93;;
22995;SDS011;11664;49.774;8.650;2022-08-19T06:14:09;12.20;;;11.00;;
22995;SDS011;11664;49.774;8.650;2022-08-19T06:16:36;11.45;;;10.52;;
22995;SDS011;11664;49.774;8.650;2022-08-19T06:19:04;10.40;;;9.30;;
22995;SDS011;11664;49.774;8.650;2022-08-19T06:21:31;13.23;;;12.13;;
22995;SDS011;11664;49.774;8.650;2022-08-19T06:23:58;16.60;;;15.30;;
22995;SDS011;11664;49.774;8.650;2022-08-19T06:26:24;11.82;;;10.25;;
22995;SDS011;11664;49.774;8.650;2022-08-19T06:28:51;10.18;;;9.20;;
22995;SDS011;11664;49.774;8.650;2022-08-19T06:31:24;14.43;;;10.70;;
22995;SDS011;11664;49.774;8.650;2022-08-19T06:33:51;24.35;;;22.75;;
22995;SDS011;11664;49.774;8.650;2022-08-19T06:38:43;33.92;;;31.58;;
22995;SDS011;11664;49.774;8.650;2022-08-19T06:41:09;21.63;;;20.10;;
22995;SDS011;11664;49.774;8.650;2022-08-19T06:43:36;11.77;;;10.88;;
22995;SDS011;11664;49.774;8.650;2022-08-19T06:46:02;12.15;;;10.98;;
22995;SDS011;11664;49.774;8.650;2022-08-19T06:48:29;12.50;;;10.35;;
22995;SDS011;11664;49.774;8.650;2022-08-19T06:50:55;9.38;;;8.45;;
22995;SDS011;11664;49.774;8.650;2022-08-19T06:53:21;8.05;;;7.28;;
22995;SDS011;11664;49.774;8.650;2022-08-19T06:55:47;10.60;;;9.70;;
22995;SDS011;11664;49.774;8.650;2022-08-19T06:58:13;8.88;;;7.78;;
22995;SDS011;11664;49.774;8.650;2022-08-19T07:00:39;11.35;;;9.27;;
22995;SDS011;11664;49.774;8.650;2022-08-19T07:03:05;10.68;;;9.57;;
22995;SDS011;11664;49.774;8.650;2022-08-19T07:05:31;15.80;;;14.30;;
22995;SDS011;11664;49.774;8.650;2022-08-19T07:07:57;15.63;;;14.32;;
22995;SDS011;11664;49.774;8.650;2022-08-19T07:10:23;17.58;;;16.30;;
22995;SDS011;11664;49.774;8.650;2022-08-19T07:12:50;14.52;;;13.40;;
22995;SDS011;11664;49.774;8.650;2022-08-19T07:15:16;17.17;;;15.88;;
22995;SDS011;11664;49.774;8.650;2022-08-19T07:17:42;23.13;;;21.52;;
22995;SDS011;11664;49.774;8.650;2022-08-19T07:20:09;13.00;;;11.85;;
22995;SDS011;11664;49.774;8.650;2022-08-19T07:22:38;8.20;;;7.40;;
22995;SDS011;11664;49.774;8.650;2022-08-19T07:25:05;8.82;;;7.93;;
22995;SDS011;11664;49.774;8.650;2022-08-19T07:27:32;7.30;;;6.60;;
22995;SDS011;11664;49.774;8.650;2022-08-19T07:29:58;10.05;;;8.35;;
22995;SDS011;11664;49.774;8.650;2022-08-19T07:32:24;11.15;;;10.00;;
22995;SDS011;11664;49.774;8.650;2022-08-19T07:34:51;10.13;;;9.35;;
22995;SDS011;11664;49.774;8.650;2022-08-19T07:37:17;10.02;;;9.13;;
22995;SDS011;11664;49.774;8.650;2022-08-19T07:39:43;10.98;;;9.95;;
22995;SDS011;11664;49.774;8.650;2022-08-19T07:42:09;7.10;;;6.47;;
22995;SDS011;11664;49.774;8.650;2022-08-19T07:44:36;7.88;;;7.07;;
22995;SDS011;11664;49.774;8.650;2022-08-19T07:47:02;7.00;;;6.30;;
22995;SDS011;11664;49.774;8.650;2022-08-19T07:49:28;8.15;;;7.00;;
22995;SDS011;11664;49.774;8.650;2022-08-19T07:51:57;8.15;;;5.88;;
22995;SDS011;11664;49.774;8.650;2022-08-19T07:54:24;7.97;;;7.30;;
22995;SDS011;11664;49.774;8.650;2022-08-19T07:56:50;7.55;;;6.97;;
22995;SDS011;11664;49.774;8.650;2022-08-19T07:59:17;9.25;;;8.45;;
22995;SDS011;11664;49.774;8.650;2022-08-19T08:01:44;6.55;;;5.95;;
22995;SDS011;11664;49.774;8.650;2022-08-19T08:04:10;6.10;;;5.50;;
22995;SDS011;11664;49.774;8.650;2022-08-19T08:06:55;6.63;;;5.72;;
22995;SDS011;11664;49.774;8.650;2022-08-19T08:09:40;5.38;;;4.97;;
22995;SDS011;11664;49.774;8.650;2022-08-19T08:12:14;5.50;;;5.05;;
22995;SDS011;11664;49.774;8.650;2022-08-19T08:14:44;7.68;;;5.40;;
22995;SDS011;11664;49.774;8.650;2022-08-19T08:17:12;6.45;;;5.85;;
22995;SDS011;11664;49.774;8.650;2022-08-19T08:19:40;5.20;;;4.80;;
22995;SDS011;11664;49.774;8.650;2022-08-19T08:22:06;5.80;;;5.30;;
22995;SDS011;11664;49.774;8.650;2022-08-19T08:24:33;8.27;;;5.38;;
22995;SDS011;11664;49.774;8.650;2022-08-19T08:27:01;5.55;;;5.10;;
22995;SDS011;11664;49.774;8.650;2022-08-19T08:29:29;5.50;;;5.00;;
22995;SDS011;11664;49.774;8.650;2022-08-19T08:31:56;6.18;;;5.78;;
22995;SDS011;11664;49.774;8.650;2022-08-19T08:34:22;8.10;;;6.15;;
22995;SDS011;11664;49.774;8.650;2022-08-19T08:36:49;6.53;;;5.95;;
22995;SDS011;11664;49.774;8.650;2022-08-19T08:39:17;8.75;;;8.13;;
22995;SDS011;11664;49.774;8.650;2022-08-19T08:44:22;13.55;;;12.75;;
22995;SDS011;11664;49.774;8.650;2022-08-19T08:46:53;8.98;;;8.27;;
22995;SDS011;11664;49.774;8.650;2022-08-19T08:49:26;7.57;;;7.00;;
22995;SDS011;11664;49.774;8.650;2022-08-19T08:54:27;5.63;;;5.22;;
22995;SDS011;11664;49.774;8.650;2022-08-19T08:56:55;13.02;;;12.23;;
22995;SDS011;11664;49.774;8.650;2022-08-19T08:59:26;10.65;;;10.05;;
22995;SDS011;11664;49.774;8.650;2022-08-19T09:01:57;10.30;;;9.55;;
22995;SDS011;11664;49.774;8.650;2022-08-19T09:04:23;7.60;;;7.13;;
22995;SDS011;11664;49.774;8.650;2022-08-19T09:07:08;8.18;;;7.63;;
22995;SDS011;11664;49.774;8.650;2022-08-19T09:09:43;8.80;;;8.20;;
22995;SDS011;11664;49.774;8.650;2022-08-19T09:12:16;10.32;;;9.60;;
22995;SDS011;11664;49.774;8.650;2022-08-19T09:14:52;7.88;;;7.38;;
22995;SDS011;11664;49.774;8.650;2022-08-19T09:17:20;6.03;;;5.63;;
22995;SDS011;11664;49.774;8.650;2022-08-19T09:19:55;8.43;;;7.82;;
22995;SDS011;11664;49.774;8.650;2022-08-19T09:22:21;4.50;;;4.20;;
22995;SDS011;11664;49.774;8.650;2022-08-19T09:24:48;5.30;;;5.00;;
22995;SDS011;11664;49.774;8.650;2022-08-19T09:27:17;5.20;;;4.70;;
22995;SDS011;11664;49.774;8.650;2022-08-19T09:29:43;6.10;;;5.60;;
22995;SDS011;11664;49.774;8.650;2022-08-19T09:32:09;7.07;;;6.47;;
22995;SDS011;11664;49.774;8.650;2022-08-19T09:34:35;6.72;;;6.22;;
22995;SDS011;11664;49.774;8.650;2022-08-19T09:37:01;6.68;;;6.28;;
22995;SDS011;11664;49.774;8.650;2022-08-19T09:39:27;6.60;;;6.10;;
22995;SDS011;11664;49.774;8.650;2022-08-19T09:41:55;5.85;;;5.45;;
22995;SDS011;11664;49.774;8.650;2022-08-19T09:44:21;6.50;;;6.10;;
22995;SDS011;11664;49.774;8.650;2022-08-19T09:46:48;6.18;;;5.68;;
22995;SDS011;11664;49.774;8.650;2022-08-19T09:49:16;5.65;;;5.35;;
22995;SDS011;11664;49.774;8.650;2022-08-19T09:51:42;6.50;;;6.07;;
22995;SDS011;11664;49.774;8.650;2022-08-19T09:54:08;6.05;;;5.65;;
22995;SDS011;11664;49.774;8.650;2022-08-19T09:56:34;5.53;;;5.13;;
22995;SDS011;11664;49.774;8.650;2022-08-19T09:59:01;5.55;;;5.03;;
22995;SDS011;11664;49.774;8.650;2022-08-19T10:01:29;5.00;;;4.70;;
22995;SDS011;11664;49.774;8.650;2022-08-19T10:03:57;7.63;;;7.13;;
22995;SDS011;11664;49.774;8.650;2022-08-19T10:06:25;6.63;;;6.22;;
22995;SDS011;11664;49.774;8.650;2022-08-19T10:08:54;6.72;;;6.32;;
22995;SDS011;11664;49.774;8.650;2022-08-19T10:11:20;8.20;;;7.45;;
22995;SDS011;11664;49.774;8.650;2022-08-19T10:13:49;6.32;;;6.03;;
22995;SDS011;11664;49.774;8.650;2022-08-19T10:16:17;7.82;;;7.32;;
22995;SDS011;11664;49.774;8.650;2022-08-19T10:18:44;6.13;;;5.72;;
22995;SDS011;11664;49.774;8.650;2022-08-19T10:21:15;5.43;;;5.00;;
22995;SDS011;11664;49.774;8.650;2022-08-19T10:23:42;6.13;;;5.70;;
22995;SDS011;11664;49.774;8.650;2022-08-19T10:26:10;6.28;;;5.78;;
22995;SDS011;11664;49.774;8.650;2022-08-19T10:28:37;5.97;;;5.57;;
22995;SDS011;11664;49.774;8.650;2022-08-19T10:31:04;6.18;;;5.68;;
22995;SDS011;11664;49.774;8.650;2022-08-19T10:33:31;6.78;;;6.28;;
22995;SDS011;11664;49.774;8.650;2022-08-19T10:36:04;6.35;;;5.88;;
22995;SDS011;11664;49.774;8.650;2022-08-19T10:38:31;5.82;;;5.43;;
22995;SDS011;11664;49.774;8.650;2022-08-19T10:40:57;5.97;;;5.57;;
22995;SDS011;11664;49.774;8.650;2022-08-19T10:43:23;7.20;;;6.70;;
22995;SDS011;11664;49.774;8.650;2022-08-19T10:45:53;7.18;;;6.45;;
22995;SDS011;11664;49.774;8.650;2022-08-19T10:48:23;5.43;;;5.00;;
22995;SDS011;11664;49.774;8.650;2022-08-19T10:50:49;5.93;;;5.35;;
22995;SDS011;11664;49.774;8.650;2022-08-19T10:53:34;5.60;;;5.10;;
22995;SDS011;11664;49.774;8.650;2022-08-19T10:56:01;5.75;;;5.25;;
22995;SDS011;11664;49.774;8.650;2022-08-19T10:58:46;10.63;;;6.47;;
22995;SDS011;11664;49.774;8.650;2022-08-19T11:01:13;6.88;;;6.20;;
22995;SDS011;11664;49.774;8.650;2022-08-19T11:03:39;8.95;;;8.35;;
22995;SDS011;11664;49.774;8.650;2022-08-19T11:06:06;6.80;;;6.30;;
22995;SDS011;11664;49.774;8.650;2022-08-19T11:08:33;6.40;;;5.80;;
22995;SDS011;11664;49.774;8.650;2022-08-19T11:11:00;6.32;;;5.82;;
22995;SDS011;11664;49.774;8.650;2022-08-19T11:13:28;8.77;;;8.18;;
22995;SDS011;11664;49.774;8.650;2022-08-19T11:15:58;8.68;;;8.07;;
22995;SDS011;11664;49.774;8.650;2022-08-19T11:18:24;7.63;;;7.13;;
22995;SDS011;11664;49.774;8.650;2022-08-19T11:20:51;8.80;;;8.20;;
22995;SDS011;11664;49.774;8.650;2022-08-19T11:23:17;12.23;;;11.25;;
22995;SDS011;11664;49.774;8.650;2022-08-19T11:25:43;10.50;;;9.82;;
22995;SDS011;11664;49.774;8.650;2022-08-19T11:28:10;11.43;;;10.63;;
22995;SDS011;11664;49.774;8.650;2022-08-19T11:30:37;9.82;;;8.85;;
22995;SDS011;11664;49.774;8.650;2022-08-19T11:33:03;10.95;;;10.05;;
22995;SDS011;11664;49.774;8.650;2022-08-19T11:35:29;9.45;;;8.65;;
22995;SDS011;11664;49.774;8.650;2022-08-19T11:37:56;8.63;;;7.97;;
22995;SDS011;11664;49.774;8.650;2022-08-19T11:40:26;8.15;;;7.55;;
22995;SDS011;11664;49.774;8.650;2022-08-19T11:42:52;8.10;;;7.50;;
22995;SDS011;11664;49.774;8.650;2022-08-19T11:45:25;7.07;;;6.57;;
22995;SDS011;11664;49.774;8.650;2022-08-19T11:47:51;10.57;;;9.88;;
22995;SDS011;11664;49.774;8.650;2022-08-19T11:50:17;9.70;;;8.88;;
22995;SDS011;11664;49.774;8.650;2022-08-19T11:52:43;7.75;;;7.05;;
22995;SDS011;11664;49.774;8.650;2022-08-19T11:55:10;7.47;;;6.50;;
22995;SDS011;11664;49.774;8.650;2022-08-19T11:57:36;5.88;;;5.30;;
22995;SDS011;11664;49.774;8.650;2022-08-19T12:00:03;5.93;;;5.43;;
22995;SDS011;11664;49.774;8.650;2022-08-19T12:02:31;7.28;;;6.50;;
22995;SDS011;11664;49.774;8.650;2022-08-19T12:04:57;6.97;;;6.47;;
22995;SDS011;11664;49.774;8.650;2022-08-19T12:07:23;9.02;;;8.43;;
22995;SDS011;11664;49.774;8.650;2022-08-19T12:09:49;19.58;;;9.27;;
22995;SDS011;11664;49.774;8.650;2022-08-19T12:12:15;7.72;;;6.93;;
22995;SDS011;11664;49.774;8.650;2022-08-19T12:14:41;6.90;;;6.30;;
22995;SDS011;11664;49.774;8.650;2022-08-19T12:17:07;16.08;;;7.10;;
22995;SDS011;11664;49.774;8.650;2022-08-19T12:19:35;6.82;;;6.28;;
22995;SDS011;11664;49.774;8.650;2022-08-19T12:22:01;9.07;;;8.18;;
22995;SDS011;11664;49.774;8.650;2022-08-19T12:24:30;6.35;;;5.85;;
22995;SDS011;11664;49.774;8.650;2022-08-19T12:26:56;6.63;;;5.88;;
22995;SDS011;11664;49.774;8.650;2022-08-19T12:29:23;6.15;;;5.65;;
22995;SDS011;11664;49.774;8.650;2022-08-19T12:31:54;5.88;;;5.38;;
22995;SDS011;11664;49.774;8.650;2022-08-19T12:34:25;6.45;;;5.95;;
22995;SDS011;11664;49.774;8.650;2022-08-19T12:36:54;5.97;;;5.47;;
22995;SDS011;11664;49.774;8.650;2022-08-19T12:39:20;7.57;;;5.07;;
22995;SDS011;11664;49.774;8.650;2022-08-19T12:41:46;8.60;;;7.90;;
22995;SDS011;11664;49.774;8.650;2022-08-19T12:44:13;7.70;;;7.10;;
22995;SDS011;11664;49.774;8.650;2022-08-19T12:46:40;6.95;;;6.35;;
22995;SDS011;11664;49.774;8.650;2022-08-19T12:49:06;7.05;;;6.47;;
22995;SDS011;11664;49.774;8.650;2022-08-19T12:51:32;6.85;;;6.25;;
22995;SDS011;11664;49.774;8.650;2022-08-19T12:53:58;5.88;;;5.38;;
22995;SDS011;11664;49.774;8.650;2022-08-19T12:56:24;6.30;;;5.80;;
22995;SDS011;11664;49.774;8.650;2022-08-19T12:58:50;8.73;;;8.13;;
22995;SDS011;11664;49.774;8.650;2022-08-19T13:01:16;9.00;;;8.40;;
22995;SDS011;11664;49.774;8.650;2022-08-19T13:03:44;6.38;;;5.97;;
22995;SDS011;11664;49.774;8.650;2022-08-19T13:06:11;8.95;;;8.30;;
22995;SDS011;11664;49.774;8.650;2022-08-19T13:08:37;11.18;;;10.43;;
22995;SDS011;11664;49.774;8.650;2022-08-19T13:11:16;7.20;;;6.75;;
22995;SDS011;11664;49.774;8.650;2022-08-19T13:13:43;5.85;;;5.45;;
22995;SDS011;11664;49.774;8.650;2022-08-19T13:16:10;6.10;;;5.70;;
22995;SDS011;11664;49.774;8.650;2022-08-19T13:18:37;6.10;;;5.60;;
22995;SDS011;11664;49.774;8.650;2022-08-19T13:21:04;5.32;;;5.00;;
22995;SDS011;11664;49.774;8.650;2022-08-19T13:23:31;6.25;;;5.85;;
22995;SDS011;11664;49.774;8.650;2022-08-19T13:26:00;6.97;;;6.47;;
22995;SDS011;11664;49.774;8.650;2022-08-19T13:28:27;7.63;;;7.13;;
22995;SDS011;11664;49.774;8.650;2022-08-19T13:31:17;6.50;;;6.10;;
22995;SDS011;11664;49.774;8.650;2022-08-19T13:34:02;5.20;;;4.78;;
22995;SDS011;11664;49.774;8.650;2022-08-19T13:36:28;4.68;;;4.38;;
22995;SDS011;11664;49.774;8.650;2022-08-19T13:38:54;5.03;;;4.63;;
22995;SDS011;11664;49.774;8.650;2022-08-19T13:41:21;5.82;;;5.43;;
22995;SDS011;11664;49.774;8.650;2022-08-19T13:43:47;6.05;;;5.65;;
22995;SDS011;11664;49.774;8.650;2022-08-19T13:46:14;5.30;;;5.00;;
22995;SDS011;11664;49.774;8.650;2022-08-19T13:48:40;5.63;;;5.22;;
22995;SDS011;11664;49.774;8.650;2022-08-19T13:51:07;5.20;;;4.80;;
22995;SDS011;11664;49.774;8.650;2022-08-19T13:53:37;5.45;;;4.93;;
22995;SDS011;11664;49.774;8.650;2022-08-19T13:56:07;5.70;;;5.30;;
22995;SDS011;11664;49.774;8.650;2022-08-19T13:58:33;5.93;;;5.53;;
22995;SDS011;11664;49.774;8.650;2022-08-19T14:00:59;5.18;;;4.78;;
22995;SDS011;11664;49.774;8.650;2022-08-19T14:03:25;7.28;;;6.88;;
22995;SDS011;11664;49.774;8.650;2022-08-19T14:05:52;5.55;;;5.25;;
22995;SDS011;11664;49.774;8.650;2022-08-19T14:08:18;5.15;;;4.85;;
22995;SDS011;11664;49.774;8.650;2022-08-19T14:10:45;5.25;;;4.95;;
22995;SDS011;11664;49.774;8.650;2022-08-19T14:13:13;5.75;;;5.38;;
22995;SDS011;11664;49.774;8.650;2022-08-19T14:15:39;6.07;;;5.68;;
22995;SDS011;11664;49.774;8.650;2022-08-19T14:18:05;6.22;;;5.70;;
22995;SDS011;11664;49.774;8.650;2022-08-19T14:20:33;8.23;;;7.72;;
22995;SDS011;11664;49.774;8.650;2022-08-19T14:23:00;7.63;;;7.13;;
22995;SDS011;11664;49.774;8.650;2022-08-19T14:25:27;6.57;;;6.18;;
22995;SDS011;11664;49.774;8.650;2022-08-19T14:27:53;7.50;;;7.05;;
22995;SDS011;11664;49.774;8.650;2022-08-19T14:30:21;8.68;;;8.15;;
22995;SDS011;11664;49.774;8.650;2022-08-19T14:32:47;11.55;;;10.90;;
22995;SDS011;11664;49.774;8.650;2022-08-19T14:35:14;11.60;;;11.00;;
22995;SDS011;11664;49.774;8.650;2022-08-19T14:37:40;9.07;;;8.55;;
22995;SDS011;11664;49.774;8.650;2022-08-19T14:40:07;5.40;;;5.10;;
22995;SDS011;11664;49.774;8.650;2022-08-19T14:42:33;5.05;;;4.75;;
22995;SDS011;11664;49.774;8.650;2022-08-19T14:45:00;4.85;;;4.55;;
22995;SDS011;11664;49.774;8.650;2022-08-19T14:47:26;5.63;;;5.13;;
22995;SDS011;11664;49.774;8.650;2022-08-19T14:49:53;4.97;;;4.68;;